createdAt,value
2018-08-09T00:00:07.918Z,14.07
2018-08-09T00:02:35.757Z,13.30
2018-08-09T00:05:06.834Z,14.43
2018-08-09T00:07:34.492Z,13.67
2018-08-09T00:10:02.479Z,12.13
2018-08-09T00:12:30.494Z,12.40
2018-08-09T00:14:58.546Z,12.57
2018-08-09T00:17:26.305Z,12.80
2018-08-09T00:19:54.070Z,13.67
2018-08-09T00:22:22.036Z,12.80
2018-08-09T00:24:50.431Z,12.67
2018-08-09T00:27:18.560Z,11.20
2018-08-09T00:29:46.529Z,12.10
2018-08-09T00:32:14.533Z,14.60
2018-08-09T00:34:42.798Z,12.90
2018-08-09T00:37:10.891Z,13.10
2018-08-09T00:39:38.967Z,14.93
2018-08-09T00:42:07.077Z,12.93
2018-08-09T00:44:35.433Z,12.83
2018-08-09T00:47:03.858Z,13.40
2018-08-09T00:49:32.512Z,12.57
2018-08-09T00:52:00.919Z,12.10
2018-08-09T00:54:29.459Z,11.53
2018-08-09T00:56:57.702Z,11.87
2018-08-09T00:59:25.956Z,11.03
2018-08-09T01:01:54.402Z,13.37
2018-08-09T01:04:22.730Z,13.43
2018-08-09T01:06:50.866Z,13.07
2018-08-09T01:09:19.035Z,13.67
2018-08-09T01:11:47.618Z,12.73
2018-08-09T01:14:15.744Z,12.47
2018-08-09T01:16:43.797Z,13.23
2018-08-09T01:19:11.960Z,11.13
2018-08-09T01:21:40.017Z,11.70
2018-08-09T01:24:08.128Z,12.67
2018-08-09T01:26:36.202Z,13.67
2018-08-09T01:29:04.478Z,13.90
2018-08-09T01:31:35.848Z,14.87
2018-08-09T01:34:04.753Z,13.13
2018-08-09T01:36:33.047Z,13.60
2018-08-09T01:39:00.865Z,13.00
2018-08-09T01:41:28.428Z,11.93
2018-08-09T01:43:58.544Z,13.88
2018-08-09T01:46:26.457Z,12.20
2018-08-09T01:48:54.788Z,14.17
2018-08-09T01:51:22.393Z,12.80
2018-08-09T01:53:50.630Z,12.45
2018-08-09T01:56:18.355Z,12.93
2018-08-09T01:58:46.232Z,12.37
2018-08-09T02:01:13.996Z,11.70
2018-08-09T02:03:41.781Z,12.35
2018-08-09T02:06:09.375Z,10.70
2018-08-09T02:08:36.920Z,12.27
2018-08-09T02:11:04.519Z,10.97
2018-08-09T02:13:32.111Z,12.33
2018-08-09T02:15:59.692Z,12.20
2018-08-09T02:18:27.254Z,12.80
2018-08-09T02:20:54.920Z,11.40
2018-08-09T02:23:22.472Z,12.50
2018-08-09T02:25:50.004Z,14.70
2018-08-09T02:28:17.703Z,13.40
2018-08-09T02:30:46.290Z,14.73
2018-08-09T02:33:13.936Z,13.47
2018-08-09T02:35:41.528Z,14.95
2018-08-09T02:38:09.138Z,13.45
2018-08-09T02:40:36.665Z,12.23
2018-08-09T02:43:04.390Z,12.00
2018-08-09T02:45:31.974Z,11.48
2018-08-09T02:47:59.510Z,13.43
2018-08-09T02:50:27.071Z,12.93
2018-08-09T02:52:54.637Z,12.85
2018-08-09T02:55:22.197Z,12.03
2018-08-09T02:57:49.739Z,11.93
2018-08-09T03:00:17.305Z,13.03
2018-08-09T03:02:44.867Z,13.50
2018-08-09T03:05:12.395Z,12.68
2018-08-09T03:07:39.921Z,15.27
2018-08-09T03:10:07.469Z,12.83
2018-08-09T03:12:35.031Z,13.22
2018-08-09T03:15:02.682Z,13.87
2018-08-09T03:17:30.268Z,13.95
2018-08-09T03:19:57.898Z,14.25
2018-08-09T03:22:25.467Z,13.77
2018-08-09T03:24:53.034Z,13.53
2018-08-09T03:27:20.561Z,12.05
2018-08-09T03:29:48.110Z,11.00
2018-08-09T03:32:15.738Z,11.40
2018-08-09T03:34:43.293Z,11.63
2018-08-09T03:37:10.863Z,11.40
2018-08-09T03:39:38.417Z,12.10
2018-08-09T03:42:06.017Z,12.20
2018-08-09T03:44:33.580Z,10.90
2018-08-09T03:47:01.108Z,10.80
2018-08-09T03:49:28.635Z,10.13
2018-08-09T03:51:56.160Z,10.03
2018-08-09T03:54:23.816Z,12.35
2018-08-09T03:56:51.358Z,9.70
2018-08-09T03:59:18.944Z,10.80
2018-08-09T04:01:46.713Z,12.20
2018-08-09T04:04:14.265Z,10.53
2018-08-09T04:06:41.822Z,9.83
2018-08-09T04:09:10.824Z,9.63
2018-08-09T04:11:38.771Z,8.95
2018-08-09T04:14:06.287Z,10.15
2018-08-09T04:16:33.824Z,11.33
2018-08-09T04:19:01.351Z,10.07
2018-08-09T04:21:28.906Z,9.78
2018-08-09T04:23:56.508Z,11.10
2018-08-09T04:26:24.115Z,13.00
2018-08-09T04:28:51.686Z,11.37
2018-08-09T04:31:19.334Z,10.50
2018-08-09T04:33:46.959Z,10.10
2018-08-09T04:36:14.550Z,10.15
2018-08-09T04:38:42.185Z,10.58
2018-08-09T04:41:09.793Z,9.30
2018-08-09T04:43:37.311Z,10.70
2018-08-09T04:46:05.318Z,11.22
2018-08-09T04:48:32.834Z,10.45
2018-08-09T04:51:00.393Z,10.50
2018-08-09T04:53:28.000Z,10.70
2018-08-09T04:55:55.579Z,11.25
2018-08-09T04:58:23.087Z,11.77
2018-08-09T05:00:50.632Z,10.90
2018-08-09T05:03:18.173Z,10.30
2018-08-09T05:05:45.677Z,11.07
2018-08-09T05:08:13.228Z,10.72
2018-08-09T05:10:40.732Z,9.07
2018-08-09T05:13:08.358Z,10.83
2018-08-09T05:15:35.984Z,11.15
2018-08-09T05:18:03.628Z,11.50
2018-08-09T05:20:31.236Z,10.03
2018-08-09T05:22:58.790Z,10.60
2018-08-09T05:25:26.298Z,10.70
2018-08-09T05:27:53.882Z,9.50
2018-08-09T05:30:21.440Z,10.40
2018-08-09T05:32:48.989Z,10.90
2018-08-09T05:35:16.573Z,10.80
2018-08-09T05:37:44.501Z,10.88
2018-08-09T05:40:12.294Z,11.43
2018-08-09T05:42:39.910Z,11.70
2018-08-09T05:45:07.595Z,9.28
2018-08-09T05:47:35.390Z,11.60
2018-08-09T05:50:03.379Z,11.10
2018-08-09T05:52:30.964Z,11.10
2018-08-09T05:54:58.546Z,11.03
2018-08-09T05:57:26.080Z,10.47
2018-08-09T05:59:53.640Z,10.93
2018-08-09T06:02:21.206Z,11.60
2018-08-09T06:04:48.759Z,11.57
2018-08-09T06:07:16.326Z,13.15
2018-08-09T06:09:43.969Z,16.23
2018-08-09T06:12:11.607Z,11.88
2018-08-09T06:14:39.150Z,11.25
2018-08-09T06:17:06.711Z,9.57
2018-08-09T06:19:34.290Z,11.10
2018-08-09T06:22:01.896Z,10.98
2018-08-09T06:24:29.478Z,11.40
2018-08-09T06:26:57.057Z,10.27
2018-08-09T06:29:24.622Z,11.25
2018-08-09T06:31:52.211Z,9.37
2018-08-09T06:34:19.771Z,9.80
2018-08-09T06:36:47.345Z,10.70
2018-08-09T06:39:14.948Z,10.30
2018-08-09T06:41:42.542Z,11.73
2018-08-09T06:44:10.380Z,16.62
2018-08-09T06:46:38.142Z,12.90
2018-08-09T06:49:05.718Z,10.60
2018-08-09T06:51:33.253Z,9.73
2018-08-09T06:54:00.795Z,11.50
2018-08-09T06:56:28.425Z,13.10
2018-08-09T06:58:55.995Z,11.05
2018-08-09T07:01:23.642Z,10.90
2018-08-09T07:03:51.204Z,10.43
2018-08-09T07:06:18.850Z,8.80
2018-08-09T07:08:46.385Z,11.15
2018-08-09T07:11:13.961Z,12.57
2018-08-09T07:13:41.547Z,12.23
2018-08-09T07:16:09.113Z,8.73
2018-08-09T07:18:36.689Z,10.67
2018-08-09T07:21:04.329Z,8.45
2018-08-09T07:23:32.116Z,9.60
2018-08-09T07:25:59.689Z,13.47
2018-08-09T07:28:27.269Z,11.03
2018-08-09T07:30:54.849Z,12.40
2018-08-09T07:33:22.463Z,12.03
2018-08-09T07:35:50.017Z,12.20
2018-08-09T07:38:17.562Z,12.17
2018-08-09T07:40:45.135Z,11.15
2018-08-09T07:43:12.735Z,11.80
2018-08-09T07:45:40.274Z,15.13
2018-08-09T07:48:07.858Z,12.13
2018-08-09T07:50:35.433Z,14.13
2018-08-09T07:53:03.036Z,13.68
2018-08-09T07:55:30.568Z,11.80
2018-08-09T07:57:58.086Z,11.70
2018-08-09T08:00:25.762Z,11.03
2018-08-09T08:02:53.272Z,12.03
2018-08-09T08:05:20.804Z,12.40
2018-08-09T08:07:48.444Z,11.38
2018-08-09T08:10:16.007Z,12.10
2018-08-09T08:12:43.556Z,11.80
2018-08-09T08:15:11.454Z,13.03
2018-08-09T08:17:38.993Z,11.45
2018-08-09T08:20:07.210Z,10.67
2018-08-09T08:22:34.752Z,10.20
2018-08-09T08:25:02.404Z,10.53
2018-08-09T08:27:30.051Z,12.10
2018-08-09T08:29:57.589Z,12.70
2018-08-09T08:32:25.184Z,11.08
2018-08-09T08:34:52.756Z,10.40
2018-08-09T08:37:20.314Z,9.78
2018-08-09T08:39:47.887Z,10.43
2018-08-09T08:42:15.479Z,10.10
2018-08-09T08:44:43.069Z,10.08
2018-08-09T08:47:10.601Z,10.40
2018-08-09T08:49:38.165Z,10.70
2018-08-09T08:52:06.105Z,9.00
2018-08-09T08:54:33.685Z,9.77
2018-08-09T08:57:01.226Z,9.78
2018-08-09T08:59:28.871Z,9.80
2018-08-09T09:01:56.687Z,8.53
2018-08-09T09:04:24.471Z,9.15
2018-08-09T09:06:51.986Z,8.73
2018-08-09T09:09:19.594Z,7.83
2018-08-09T09:11:47.192Z,8.77
2018-08-09T09:14:14.763Z,9.30
2018-08-09T09:16:42.341Z,7.90
2018-08-09T09:19:09.973Z,8.80
2018-08-09T09:21:37.668Z,8.07
2018-08-09T09:24:05.402Z,7.75
2018-08-09T09:26:32.989Z,8.40
2018-08-09T09:29:00.568Z,7.90
2018-08-09T09:31:28.236Z,8.37
2018-08-09T09:33:55.756Z,7.57
2018-08-09T09:36:23.326Z,6.77
2018-08-09T09:38:50.901Z,6.85
2018-08-09T09:41:18.634Z,6.43
2018-08-09T09:43:46.189Z,7.13
2018-08-09T09:46:13.854Z,6.70
2018-08-09T09:48:41.365Z,6.65
2018-08-09T09:51:09.085Z,6.57
2018-08-09T09:53:36.657Z,7.63
2018-08-09T09:56:04.417Z,6.92
2018-08-09T09:58:32.005Z,6.97
2018-08-09T10:01:05.289Z,6.70
2018-08-09T10:03:32.835Z,6.70
2018-08-09T10:06:00.406Z,6.53
2018-08-09T10:08:28.004Z,6.70
2018-08-09T10:10:55.636Z,6.93
2018-08-09T10:13:23.205Z,5.93
2018-08-09T10:15:50.769Z,5.33
2018-08-09T10:18:18.307Z,6.17
2018-08-09T10:20:45.909Z,4.50
2018-08-09T10:23:13.458Z,4.87
2018-08-09T10:25:41.028Z,5.03
2018-08-09T10:28:08.561Z,5.10
2018-08-09T10:30:36.153Z,4.57
2018-08-09T10:33:03.717Z,4.20
2018-08-09T10:35:31.303Z,4.00
2018-08-09T10:37:58.794Z,5.95
2018-08-09T10:40:26.356Z,4.30
2018-08-09T10:42:53.961Z,5.40
2018-08-09T10:45:21.498Z,4.72
2018-08-09T10:47:49.084Z,4.00
2018-08-09T10:50:16.716Z,3.98
2018-08-09T10:52:44.314Z,4.33
2018-08-09T10:55:11.858Z,4.70
2018-08-09T10:57:39.640Z,3.83
2018-08-09T11:00:09.569Z,4.30
2018-08-09T11:02:37.088Z,4.07
2018-08-09T11:05:05.498Z,4.58
2018-08-09T11:07:33.052Z,4.13
2018-08-09T11:10:00.657Z,4.30
2018-08-09T11:12:28.218Z,5.40
2018-08-09T11:14:55.807Z,4.10
2018-08-09T11:17:23.359Z,4.00
2018-08-09T11:19:50.930Z,3.70
2018-08-09T11:22:18.515Z,4.23
2018-08-09T11:24:46.054Z,3.60
2018-08-09T11:27:13.635Z,4.75
2018-08-09T11:29:41.173Z,5.03
2018-08-09T11:32:08.714Z,5.37
2018-08-09T11:34:36.237Z,4.70
2018-08-09T11:37:03.921Z,5.20
2018-08-09T11:39:31.517Z,4.63
2018-08-09T11:41:59.112Z,4.92
2018-08-09T11:44:26.599Z,4.90
2018-08-09T11:46:54.164Z,5.20
2018-08-09T11:49:22.135Z,4.92
2018-08-09T11:51:49.957Z,5.40
2018-08-09T11:54:17.474Z,5.27
2018-08-09T11:56:45.152Z,5.80
2018-08-09T11:59:12.673Z,4.50
2018-08-09T12:01:40.332Z,4.33
2018-08-09T12:04:08.058Z,5.17
2018-08-09T12:06:35.582Z,5.58
2018-08-09T12:09:05.677Z,4.87
2018-08-09T12:11:33.316Z,4.10
2018-08-09T12:14:00.838Z,5.22
2018-08-09T12:16:28.352Z,4.80
2018-08-09T12:18:55.890Z,5.83
2018-08-09T12:21:23.483Z,5.30
2018-08-09T12:23:51.002Z,5.93
2018-08-09T12:26:18.534Z,5.80
2018-08-09T12:28:46.178Z,4.90
2018-08-09T12:31:13.903Z,5.75
2018-08-09T12:33:41.457Z,5.23
2018-08-09T12:36:09.078Z,4.80
2018-08-09T12:38:36.694Z,5.33
2018-08-09T12:41:04.307Z,5.63
2018-08-09T12:43:31.926Z,5.23
2018-08-09T12:45:59.479Z,5.20
2018-08-09T12:48:27.045Z,5.03
2018-08-09T12:50:54.665Z,5.37
2018-08-09T12:53:22.260Z,5.17
2018-08-09T12:55:49.842Z,6.17
2018-08-09T12:58:17.430Z,5.87
2018-08-09T13:00:44.954Z,6.80
2018-08-09T13:03:12.538Z,5.20
2018-08-09T13:05:40.137Z,6.13
2018-08-09T13:08:07.730Z,5.57
2018-08-09T13:10:35.312Z,6.03
2018-08-09T13:13:02.871Z,5.63
2018-08-09T13:15:30.630Z,6.10
2018-08-09T13:17:58.246Z,6.27
2018-08-09T13:20:25.826Z,6.47
2018-08-09T13:22:53.449Z,6.30
2018-08-09T13:25:21.063Z,6.00
2018-08-09T13:27:48.709Z,5.75
2018-08-09T13:30:16.334Z,5.27
2018-08-09T13:32:44.417Z,5.00
2018-08-09T13:35:12.927Z,5.60
2018-08-09T13:37:40.662Z,4.90
2018-08-09T13:40:09.555Z,5.33
2018-08-09T13:42:37.640Z,5.40
2018-08-09T13:45:06.700Z,5.27
2018-08-09T13:47:34.251Z,5.23
2018-08-09T13:50:01.934Z,5.35
2018-08-09T13:52:29.525Z,5.25
2018-08-09T13:54:57.117Z,6.10
2018-08-09T13:57:24.677Z,6.13
2018-08-09T13:59:52.249Z,5.35
2018-08-09T14:02:19.821Z,5.83
2018-08-09T14:04:47.423Z,5.33
2018-08-09T14:07:15.119Z,5.80
2018-08-09T14:09:42.777Z,5.00
2018-08-09T14:12:10.356Z,5.30
2018-08-09T14:14:37.953Z,4.85
2018-08-09T14:17:05.571Z,4.87
2018-08-09T14:19:33.093Z,4.73
2018-08-09T14:22:00.728Z,4.47
2018-08-09T14:24:28.356Z,4.08
2018-08-09T14:26:55.960Z,4.30
2018-08-09T14:29:23.512Z,4.33
2018-08-09T14:31:51.255Z,4.10
2018-08-09T14:34:18.797Z,5.30
2018-08-09T14:36:46.322Z,4.50
2018-08-09T14:39:13.993Z,5.25
2018-08-09T14:41:42.239Z,4.70
2018-08-09T14:44:09.790Z,5.47
2018-08-09T14:46:37.385Z,5.40
2018-08-09T14:49:05.438Z,4.30
2018-08-09T14:51:33.056Z,5.57
2018-08-09T14:54:00.648Z,5.33
2018-08-09T14:56:28.372Z,4.80
2018-08-09T14:58:56.062Z,4.67
2018-08-09T15:01:23.672Z,5.35
2018-08-09T15:03:51.325Z,5.70
2018-08-09T15:06:18.917Z,4.77
2018-08-09T15:08:46.677Z,4.40
2018-08-09T15:11:14.270Z,5.80
2018-08-09T15:13:41.887Z,5.40
2018-08-09T15:16:10.018Z,4.65
2018-08-09T15:18:37.719Z,4.77
2018-08-09T15:21:05.359Z,5.17
2018-08-09T15:23:32.992Z,4.75
2018-08-09T15:26:00.557Z,4.70
2018-08-09T15:28:28.177Z,4.57
2018-08-09T15:30:55.835Z,4.73
2018-08-09T15:33:23.329Z,4.67
2018-08-09T15:35:50.876Z,5.57
2018-08-09T15:38:18.714Z,5.00
2018-08-09T15:40:46.362Z,5.73
2018-08-09T15:43:13.979Z,5.00
2018-08-09T15:45:41.594Z,4.33
2018-08-09T15:48:09.165Z,4.72
2018-08-09T15:50:36.681Z,4.70
2018-08-09T15:53:04.556Z,4.60
2018-08-09T15:55:32.172Z,5.30
2018-08-09T15:57:59.770Z,4.93
2018-08-09T16:00:27.406Z,4.87
2018-08-09T16:02:54.990Z,4.60
2018-08-09T16:05:22.614Z,5.47
2018-08-09T16:07:50.213Z,4.93
2018-08-09T16:10:18.085Z,6.25
2018-08-09T16:12:46.473Z,5.93
2018-08-09T16:15:15.601Z,6.67
2018-08-09T16:17:44.270Z,4.90
2018-08-09T16:20:12.141Z,5.57
2018-08-09T16:22:40.314Z,4.60
2018-08-09T16:25:11.002Z,5.47
2018-08-09T16:27:38.814Z,5.40
2018-08-09T16:30:14.417Z,5.53
2018-08-09T16:32:42.549Z,5.07
2018-08-09T16:35:10.971Z,5.40
2018-08-09T16:37:39.106Z,5.53
2018-08-09T16:40:08.832Z,15.50
2018-08-09T16:42:36.459Z,6.50
2018-08-09T16:45:05.149Z,5.80
2018-08-09T16:47:32.741Z,5.57
2018-08-09T16:50:00.469Z,5.62
2018-08-09T16:52:28.081Z,6.08
2018-08-09T16:54:55.683Z,6.40
2018-08-09T16:57:23.313Z,5.70
2018-08-09T16:59:50.881Z,5.40
2018-08-09T17:02:18.431Z,6.40
2018-08-09T17:04:46.363Z,6.63
2018-08-09T17:07:14.024Z,5.80
2018-08-09T17:12:24.435Z,6.00
2018-08-09T17:14:52.205Z,6.17
2018-08-09T17:17:20.083Z,7.03
2018-08-09T17:19:47.794Z,6.70
2018-08-09T17:22:15.678Z,6.97
2018-08-09T17:24:43.322Z,6.87
2018-08-09T17:27:10.941Z,7.53
2018-08-09T17:29:38.673Z,6.77
2018-08-09T17:32:06.698Z,6.83
2018-08-09T17:34:34.322Z,7.13
2018-08-09T17:37:02.042Z,6.60
2018-08-09T17:39:29.772Z,7.35
2018-08-09T17:41:57.464Z,7.35
2018-08-09T17:44:25.256Z,7.10
2018-08-09T17:46:52.995Z,6.30
2018-08-09T17:49:20.772Z,7.27
2018-08-09T17:51:48.450Z,7.13
2018-08-09T17:54:16.184Z,7.07
2018-08-09T17:56:43.911Z,6.50
2018-08-09T17:59:11.521Z,7.50
2018-08-09T18:01:39.255Z,6.50
2018-08-09T18:04:07.079Z,7.28
2018-08-09T18:06:35.956Z,7.37
2018-08-09T18:09:07.298Z,7.10
2018-08-09T18:11:34.935Z,8.70
2018-08-09T18:14:02.592Z,6.90
2018-08-09T18:16:30.298Z,6.58
2018-08-09T18:18:58.000Z,6.97
2018-08-09T18:21:25.677Z,7.07
2018-08-09T18:23:53.321Z,7.17
2018-08-09T18:26:20.937Z,8.40
2018-08-09T18:28:48.501Z,7.90
2018-08-09T18:31:16.114Z,7.20
2018-08-09T18:33:43.712Z,6.80
2018-08-09T18:36:11.533Z,8.67
2018-08-09T18:38:39.277Z,8.47
2018-08-09T18:41:06.927Z,9.00
2018-08-09T18:43:35.597Z,8.83
2018-08-09T18:46:03.265Z,10.13
2018-08-09T18:48:30.855Z,9.65
2018-08-09T18:50:59.535Z,9.25
2018-08-09T18:53:58.917Z,9.43
2018-08-09T18:56:26.830Z,10.80
2018-08-09T18:58:54.617Z,9.93
2018-08-09T19:01:22.257Z,9.67
2018-08-09T19:03:50.104Z,9.88
2018-08-09T19:06:17.755Z,9.83
2018-08-09T19:08:45.367Z,8.83
2018-08-09T19:11:12.903Z,9.17
2018-08-09T19:13:40.535Z,9.03
2018-08-09T19:16:08.187Z,9.10
2018-08-09T19:18:35.789Z,10.30
2018-08-09T19:21:03.457Z,11.37
2018-08-09T19:23:31.103Z,10.13
2018-08-09T19:25:59.020Z,11.68
2018-08-09T19:28:26.615Z,10.77
2018-08-09T19:30:54.203Z,9.70
2018-08-09T19:33:22.429Z,10.33
2018-08-09T19:35:50.156Z,10.30
2018-08-09T19:38:17.818Z,11.53
2018-08-09T19:40:45.425Z,11.30
2018-08-09T19:43:13.022Z,10.37
2018-08-09T19:45:41.590Z,12.10
2018-08-09T19:48:09.396Z,13.08
2018-08-09T19:50:37.058Z,12.70
2018-08-09T19:53:05.155Z,10.67
2018-08-09T19:55:32.816Z,17.13
2018-08-09T19:58:01.572Z,13.40
2018-08-09T20:00:30.189Z,9.83
2018-08-09T20:02:57.857Z,7.90
2018-08-09T20:05:25.682Z,6.53
2018-08-09T20:07:53.520Z,5.53
2018-08-09T20:10:21.147Z,5.10
2018-08-09T20:12:49.042Z,5.10
2018-08-09T20:15:19.386Z,4.25
2018-08-09T20:17:47.131Z,7.93
2018-08-09T20:20:16.218Z,5.07
2018-08-09T20:22:44.063Z,4.37
2018-08-09T20:25:12.572Z,4.60
2018-08-09T20:27:40.640Z,5.90
2018-08-09T20:30:11.094Z,3.87
2018-08-09T20:32:39.828Z,4.00
2018-08-09T20:35:10.353Z,4.33
2018-08-09T20:37:38.273Z,5.50
2018-08-09T20:40:07.523Z,4.10
2018-08-09T20:42:35.392Z,3.83
2018-08-09T20:45:03.419Z,4.23
2018-08-09T20:47:31.560Z,3.80
2018-08-09T20:49:59.423Z,4.63
2018-08-09T20:52:27.022Z,4.17
2018-08-09T20:54:56.497Z,4.15
2018-08-09T20:57:24.153Z,3.57
2018-08-09T20:59:51.917Z,4.58
2018-08-09T21:02:19.567Z,4.25
2018-08-09T21:04:47.333Z,3.80
2018-08-09T21:07:14.961Z,3.80
2018-08-09T21:09:42.589Z,4.10
2018-08-09T21:12:10.184Z,4.00
2018-08-09T21:14:37.826Z,3.00
2018-08-09T21:17:05.433Z,3.23
2018-08-09T21:19:33.168Z,3.73
2018-08-09T21:22:01.223Z,3.03
2018-08-09T21:24:28.935Z,4.27
2018-08-09T21:26:56.506Z,4.33
2018-08-09T21:29:24.202Z,3.90
2018-08-09T21:31:51.942Z,4.33
2018-08-09T21:34:19.538Z,4.30
2018-08-09T21:36:47.073Z,5.00
2018-08-09T21:39:14.711Z,6.67
2018-08-09T21:41:42.371Z,5.10
2018-08-09T21:44:09.982Z,4.03
2018-08-09T21:46:37.569Z,4.42
2018-08-09T21:49:05.527Z,4.60
2018-08-09T21:51:33.158Z,4.43
2018-08-09T21:54:00.787Z,4.40
2018-08-09T21:56:28.325Z,5.43
2018-08-09T21:58:55.855Z,4.47
2018-08-09T22:01:23.503Z,5.80
2018-08-09T22:03:51.149Z,4.20
2018-08-09T22:06:24.370Z,4.95
2018-08-09T22:08:57.868Z,4.37
2018-08-09T22:11:31.243Z,4.50
2018-08-09T22:14:04.534Z,3.73
2018-08-09T22:16:37.967Z,4.10
2018-08-09T22:19:11.487Z,4.60
2018-08-09T22:21:44.758Z,4.73
2018-08-09T22:24:12.422Z,3.97
2018-08-09T22:26:40.054Z,4.70
2018-08-09T22:29:07.693Z,3.92
2018-08-09T22:31:35.291Z,3.87
2018-08-09T22:34:02.983Z,3.60
2018-08-09T22:36:30.581Z,4.77
2018-08-09T22:38:58.237Z,3.90
2018-08-09T22:41:25.841Z,4.93
2018-08-09T22:43:53.441Z,4.50
2018-08-09T22:46:21.109Z,4.70
2018-08-09T22:48:48.701Z,4.62
2018-08-09T22:51:16.348Z,4.03
2018-08-09T22:53:43.913Z,4.10
2018-08-09T22:56:11.528Z,3.47
2018-08-09T22:58:39.160Z,3.70
2018-08-09T23:01:06.765Z,3.00
2018-08-09T23:03:34.382Z,3.15
2018-08-09T23:06:01.985Z,2.98
2018-08-09T23:08:29.527Z,4.20
2018-08-09T23:10:57.240Z,3.17
2018-08-09T23:13:24.814Z,3.58
2018-08-09T23:15:52.438Z,2.80
2018-08-09T23:18:20.011Z,4.25
2018-08-09T23:20:47.624Z,3.20
2018-08-09T23:23:15.210Z,4.27
2018-08-09T23:25:42.784Z,3.70
2018-08-09T23:28:10.377Z,3.75
2018-08-09T23:30:37.932Z,3.73
2018-08-09T23:33:05.570Z,3.40
2018-08-09T23:35:33.253Z,3.10
2018-08-09T23:38:00.838Z,3.77
2018-08-09T23:40:28.406Z,3.33
2018-08-09T23:42:55.950Z,2.90
2018-08-09T23:45:23.580Z,2.80
2018-08-09T23:47:51.157Z,3.40
2018-08-09T23:50:18.777Z,2.90
2018-08-09T23:52:46.407Z,2.92
2018-08-09T23:55:15.472Z,2.87
2018-08-09T23:57:43.278Z,2.92
